createdAt,value
2019-02-24T00:00:10.428Z,6.00
2019-02-24T00:02:39.752Z,5.90
2019-02-24T00:05:09.431Z,5.90
2019-02-24T00:07:38.744Z,5.80
2019-02-24T00:10:08.126Z,5.70
2019-02-24T00:12:37.484Z,5.80
2019-02-24T00:15:08.549Z,5.80
2019-02-24T00:17:37.865Z,5.70
2019-02-24T00:20:07.769Z,5.70
2019-02-24T00:22:37.143Z,5.70
2019-02-24T00:25:07.086Z,5.70
2019-02-24T00:27:36.451Z,5.70
2019-02-24T00:30:07.399Z,5.60
2019-02-24T00:32:36.710Z,5.60
2019-02-24T00:35:07.060Z,5.70
2019-02-24T00:37:36.661Z,5.60
2019-02-24T00:40:08.010Z,5.50
2019-02-24T00:42:37.365Z,5.60
2019-02-24T00:45:08.420Z,5.60
2019-02-24T00:47:37.738Z,5.60
2019-02-24T00:50:09.835Z,5.50
2019-02-24T00:52:39.147Z,5.50
2019-02-24T00:55:09.597Z,5.50
2019-02-24T00:57:38.955Z,5.50
2019-02-24T01:00:11.562Z,5.60
2019-02-24T01:02:40.872Z,5.40
2019-02-24T01:05:10.645Z,5.40
2019-02-24T01:07:39.995Z,5.40
2019-02-24T01:10:10.070Z,5.40
2019-02-24T01:12:39.445Z,5.40
2019-02-24T01:15:10.759Z,5.40
2019-02-24T01:17:40.065Z,5.40
2019-02-24T01:20:10.398Z,5.40
2019-02-24T01:22:39.719Z,5.50
2019-02-24T01:25:09.468Z,5.40
2019-02-24T01:27:39.076Z,5.40
2019-02-24T01:30:11.231Z,5.30
2019-02-24T01:32:41.198Z,5.10
2019-02-24T01:35:10.560Z,5.20
2019-02-24T01:37:40.156Z,5.20
2019-02-24T01:40:10.359Z,5.20
2019-02-24T01:42:39.717Z,5.20
2019-02-24T01:45:09.598Z,5.20
2019-02-24T01:47:38.902Z,5.30
2019-02-24T01:50:09.668Z,5.10
2019-02-24T01:52:38.980Z,5.10
2019-02-24T01:55:09.136Z,5.10
2019-02-24T01:57:38.524Z,5.10
2019-02-24T02:00:10.886Z,5.00
2019-02-24T02:02:40.243Z,5.00
2019-02-24T02:05:09.666Z,5.10
2019-02-24T02:07:39.228Z,5.10
2019-02-24T02:10:08.680Z,5.20
2019-02-24T02:12:38.345Z,5.10
2019-02-24T02:15:08.884Z,5.00
2019-02-24T02:17:38.281Z,5.10
2019-02-24T02:20:10.137Z,5.00
2019-02-24T02:22:39.766Z,5.00
2019-02-24T02:25:10.378Z,4.90
2019-02-24T02:27:39.791Z,4.80
2019-02-24T02:30:11.623Z,4.80
2019-02-24T02:32:40.952Z,4.90
2019-02-24T02:35:10.898Z,4.90
2019-02-24T02:37:40.221Z,4.90
2019-02-24T02:40:09.796Z,4.90
2019-02-24T02:42:39.160Z,4.80
2019-02-24T02:45:09.408Z,4.80
2019-02-24T02:47:39.003Z,4.80
2019-02-24T02:50:08.529Z,4.80
2019-02-24T02:52:37.844Z,4.80
2019-02-24T02:55:07.792Z,4.70
2019-02-24T02:57:37.416Z,4.60
2019-02-24T03:00:28.943Z,4.80
2019-02-24T03:02:58.388Z,4.80
2019-02-24T03:05:27.976Z,4.70
2019-02-24T03:07:59.187Z,4.70
2019-02-24T03:10:28.542Z,4.80
2019-02-24T03:12:57.853Z,4.80
2019-02-24T03:15:27.507Z,4.80
2019-02-24T03:17:57.121Z,4.80
2019-02-24T03:20:26.437Z,4.70
2019-02-24T03:22:56.003Z,4.80
2019-02-24T03:25:25.363Z,4.90
2019-02-24T03:27:54.923Z,4.80
2019-02-24T03:30:24.545Z,4.80
2019-02-24T03:32:53.951Z,4.80
2019-02-24T03:35:23.258Z,4.70
2019-02-24T03:37:52.569Z,4.70
2019-02-24T03:40:22.256Z,4.70
2019-02-24T03:42:51.864Z,4.60
2019-02-24T03:45:21.473Z,4.60
2019-02-24T03:47:50.829Z,4.70
2019-02-24T03:50:20.137Z,4.60
2019-02-24T03:52:49.774Z,4.60
2019-02-24T03:55:19.131Z,4.50
2019-02-24T03:57:48.451Z,4.60
2019-02-24T04:00:17.744Z,4.50
2019-02-24T04:02:47.349Z,4.50
2019-02-24T04:05:17.510Z,4.40
2019-02-24T04:07:47.088Z,4.50
2019-02-24T04:10:16.706Z,4.50
2019-02-24T04:12:46.014Z,4.50
2019-02-24T04:15:15.332Z,4.40
2019-02-24T04:17:44.696Z,4.40
2019-02-24T04:20:14.009Z,4.40
2019-02-24T04:22:43.325Z,4.50
2019-02-24T04:25:12.679Z,4.40
2019-02-24T04:27:41.988Z,4.40
2019-02-24T04:30:11.306Z,4.40
2019-02-24T04:32:40.807Z,4.40
2019-02-24T04:35:10.437Z,4.50
2019-02-24T04:37:40.059Z,4.40
2019-02-24T04:40:09.403Z,4.50
2019-02-24T04:42:38.733Z,4.40
2019-02-24T04:45:08.228Z,4.40
2019-02-24T04:47:37.586Z,4.40
2019-02-24T04:50:07.167Z,4.40
2019-02-24T04:52:36.469Z,4.40
2019-02-24T04:55:06.968Z,4.40
2019-02-24T04:57:36.277Z,4.40
2019-02-24T05:00:10.700Z,4.40
2019-02-24T05:02:40.123Z,4.40
2019-02-24T05:05:10.002Z,4.40
2019-02-24T05:07:39.321Z,4.20
2019-02-24T05:10:09.317Z,4.30
2019-02-24T05:12:38.637Z,4.30
2019-02-24T05:15:08.536Z,4.20
2019-02-24T05:17:38.799Z,4.30
2019-02-24T05:20:09.267Z,4.30
2019-02-24T05:22:41.492Z,4.30
2019-02-24T05:25:11.098Z,4.30
2019-02-24T05:27:40.675Z,4.30
2019-02-24T05:30:09.993Z,4.30
2019-02-24T05:32:39.363Z,4.30
2019-02-24T05:35:08.734Z,4.40
2019-02-24T05:37:39.012Z,4.40
2019-02-24T05:40:08.430Z,4.40
2019-02-24T05:42:37.731Z,4.30
2019-02-24T05:45:07.668Z,4.40
2019-02-24T05:47:37.531Z,4.30
2019-02-24T05:50:07.592Z,4.30
2019-02-24T05:52:36.903Z,4.30
2019-02-24T05:55:07.403Z,4.20
2019-02-24T05:57:36.996Z,4.30
2019-02-24T06:00:07.510Z,4.30
2019-02-24T06:02:36.868Z,4.30
2019-02-24T06:05:06.519Z,4.20
2019-02-24T06:07:35.826Z,4.20
2019-02-24T06:10:07.188Z,4.20
2019-02-24T06:12:36.489Z,4.20
2019-02-24T06:15:07.208Z,4.20
2019-02-24T06:17:36.832Z,4.20
2019-02-24T06:20:06.574Z,4.30
2019-02-24T06:22:38.324Z,4.30
2019-02-24T06:25:07.858Z,4.20
2019-02-24T06:27:37.487Z,4.10
2019-02-24T06:30:09.248Z,4.10
2019-02-24T06:32:38.606Z,4.20
2019-02-24T06:35:09.028Z,4.20
2019-02-24T06:37:38.593Z,4.10
2019-02-24T06:40:09.328Z,4.10
2019-02-24T06:42:38.649Z,4.10
2019-02-24T06:45:09.897Z,4.10
2019-02-24T06:47:39.255Z,4.20
2019-02-24T06:50:10.066Z,4.20
2019-02-24T06:52:39.753Z,4.20
2019-02-24T06:55:10.025Z,4.20
2019-02-24T06:57:39.655Z,4.20
2019-02-24T07:00:14.161Z,4.20
2019-02-24T07:02:42.944Z,4.30
2019-02-24T07:05:12.263Z,4.30
2019-02-24T07:07:41.574Z,4.30
2019-02-24T07:10:10.997Z,4.30
2019-02-24T07:12:40.356Z,4.30
2019-02-24T07:15:10.294Z,4.30
2019-02-24T07:17:39.656Z,4.40
2019-02-24T07:20:11.142Z,4.40
2019-02-24T07:22:40.737Z,4.40
2019-02-24T07:25:10.093Z,4.50
2019-02-24T07:27:39.402Z,4.50
2019-02-24T07:30:10.584Z,4.60
2019-02-24T07:32:40.177Z,4.60
2019-02-24T07:35:09.488Z,4.70
2019-02-24T07:37:38.795Z,4.80
2019-02-24T07:40:08.521Z,4.80
2019-02-24T07:42:38.099Z,4.90
2019-02-24T07:45:08.882Z,4.90
2019-02-24T07:47:38.293Z,5.00
2019-02-24T07:50:09.547Z,5.00
2019-02-24T07:52:39.302Z,5.00
2019-02-24T07:55:08.926Z,5.00
2019-02-24T07:57:38.515Z,5.10
2019-02-24T08:00:11.753Z,5.20
2019-02-24T08:02:41.420Z,5.30
2019-02-24T08:05:11.009Z,5.40
2019-02-24T08:07:40.322Z,5.50
2019-02-24T08:10:09.672Z,5.40
2019-02-24T08:12:39.328Z,5.40
2019-02-24T08:15:10.291Z,5.50
2019-02-24T08:17:39.706Z,5.50
2019-02-24T08:20:10.361Z,5.60
2019-02-24T08:22:39.820Z,5.60
2019-02-24T08:25:09.725Z,5.60
2019-02-24T08:27:39.033Z,5.70
2019-02-24T08:30:13.063Z,5.80
2019-02-24T08:32:42.975Z,5.80
2019-02-24T08:35:12.287Z,5.80
2019-02-24T08:37:44.671Z,5.90
2019-02-24T08:40:14.027Z,5.90
2019-02-24T08:42:43.335Z,5.90
2019-02-24T08:45:12.638Z,6.10
2019-02-24T08:47:41.993Z,6.10
2019-02-24T08:50:11.934Z,6.30
2019-02-24T08:52:43.860Z,6.30
2019-02-24T08:55:13.485Z,6.40
2019-02-24T08:57:43.028Z,6.40
2019-02-24T09:00:15.752Z,6.50
2019-02-24T09:02:45.107Z,6.50
2019-02-24T09:05:14.494Z,6.50
2019-02-24T09:07:43.807Z,6.60
2019-02-24T09:10:13.174Z,6.60
2019-02-24T09:12:42.904Z,6.70
2019-02-24T09:15:14.345Z,6.70
2019-02-24T09:17:43.697Z,6.90
2019-02-24T09:20:14.504Z,6.90
2019-02-24T09:22:44.649Z,6.90
2019-02-24T09:25:14.023Z,6.90
2019-02-24T09:27:43.324Z,6.90
2019-02-24T09:30:14.244Z,7.00
2019-02-24T09:32:44.075Z,7.10
2019-02-24T09:35:13.770Z,7.10
2019-02-24T09:37:43.073Z,7.30
2019-02-24T09:40:13.424Z,7.30
2019-02-24T09:42:42.724Z,7.30
2019-02-24T09:45:13.285Z,7.40
2019-02-24T09:47:47.009Z,7.40
2019-02-24T09:50:15.722Z,7.50
2019-02-24T09:52:45.332Z,7.60
2019-02-24T09:55:15.038Z,7.70
2019-02-24T09:57:44.365Z,7.70
2019-02-24T10:00:16.247Z,7.80
2019-02-24T10:02:45.645Z,7.90
2019-02-24T10:05:14.941Z,7.90
2019-02-24T10:07:44.255Z,8.00
2019-02-24T10:10:14.136Z,8.10
2019-02-24T10:12:43.922Z,8.20
2019-02-24T10:15:15.736Z,8.20
2019-02-24T10:17:45.385Z,8.30
2019-02-24T10:20:15.445Z,8.30
2019-02-24T10:22:45.024Z,8.40
2019-02-24T10:25:14.371Z,8.60
2019-02-24T10:27:43.689Z,8.60
2019-02-24T10:30:15.983Z,8.70
2019-02-24T10:32:45.803Z,8.80
2019-02-24T10:35:15.196Z,8.90
2019-02-24T10:37:44.505Z,8.90
2019-02-24T10:40:16.939Z,9.10
2019-02-24T10:42:46.276Z,9.10
2019-02-24T10:45:18.567Z,9.20
2019-02-24T10:47:47.928Z,9.20
2019-02-24T10:50:18.486Z,9.30
2019-02-24T10:52:48.089Z,9.40
2019-02-24T10:55:17.706Z,9.50
2019-02-24T10:57:47.311Z,9.60
2019-02-24T11:00:20.466Z,9.70
2019-02-24T11:02:50.092Z,9.70
2019-02-24T11:05:19.902Z,9.90
2019-02-24T11:07:49.209Z,9.90
2019-02-24T11:10:18.563Z,9.90
2019-02-24T11:12:48.073Z,10.00
2019-02-24T11:15:17.432Z,10.10
2019-02-24T11:17:47.144Z,10.20
2019-02-24T11:20:19.009Z,10.40
2019-02-24T11:22:48.330Z,10.50
2019-02-24T11:25:17.799Z,10.60
2019-02-24T11:27:47.412Z,10.70
2019-02-24T11:30:16.809Z,10.80
2019-02-24T11:32:46.521Z,10.90
2019-02-24T11:35:15.954Z,11.10
2019-02-24T11:37:45.270Z,11.20
2019-02-24T11:40:20.244Z,11.30
2019-02-24T11:42:49.569Z,11.40
2019-02-24T11:45:18.880Z,11.50
2019-02-24T11:47:48.236Z,11.60
2019-02-24T11:50:17.553Z,11.80
2019-02-24T11:52:46.868Z,11.80
2019-02-24T11:55:16.295Z,11.90
2019-02-24T11:57:45.641Z,12.10
2019-02-24T12:00:16.519Z,12.10
2019-02-24T12:02:45.860Z,12.20
2019-02-24T12:05:15.177Z,12.30
2019-02-24T12:07:44.663Z,12.30
2019-02-24T12:10:14.288Z,12.50
2019-02-24T12:12:43.605Z,12.60
2019-02-24T12:15:14.977Z,12.80
2019-02-24T12:17:44.457Z,13.00
2019-02-24T12:20:15.101Z,13.20
2019-02-24T12:22:44.423Z,13.10
2019-02-24T12:25:13.780Z,13.10
2019-02-24T12:27:43.400Z,13.20
2019-02-24T12:30:15.605Z,13.20
2019-02-24T12:32:45.092Z,13.40
2019-02-24T12:35:14.783Z,13.60
2019-02-24T12:37:44.111Z,13.50
2019-02-24T12:40:15.651Z,13.60
2019-02-24T12:42:44.949Z,13.60
2019-02-24T12:45:14.280Z,13.60
2019-02-24T12:47:43.638Z,13.80
2019-02-24T12:50:18.582Z,14.00
2019-02-24T12:52:48.182Z,14.10
2019-02-24T12:55:17.537Z,14.00
2019-02-24T12:57:46.907Z,14.10
2019-02-24T13:00:25.676Z,14.30
2019-02-24T13:02:55.251Z,14.50
2019-02-24T13:05:24.927Z,14.60
2019-02-24T13:07:54.522Z,14.90
2019-02-24T13:10:24.117Z,15.00
2019-02-24T13:12:53.744Z,15.10
2019-02-24T13:15:23.348Z,15.00
2019-02-24T13:17:53.063Z,15.30
2019-02-24T13:20:22.381Z,15.40
2019-02-24T13:22:52.073Z,15.50
2019-02-24T13:25:21.689Z,15.60
2019-02-24T13:27:51.001Z,15.80
2019-02-24T13:30:20.433Z,15.90
2019-02-24T13:32:50.098Z,15.90
2019-02-24T13:35:19.702Z,16.00
2019-02-24T13:37:49.059Z,16.00
2019-02-24T13:40:18.424Z,16.00
2019-02-24T13:42:47.801Z,16.10
2019-02-24T13:45:22.095Z,16.20
2019-02-24T13:47:51.408Z,16.30
2019-02-24T13:50:20.787Z,16.60
2019-02-24T13:52:50.422Z,16.60
2019-02-24T13:55:19.740Z,16.80
2019-02-24T13:57:49.350Z,16.90
2019-02-24T14:00:20.920Z,17.20
2019-02-24T14:02:50.228Z,17.30
2019-02-24T14:05:19.550Z,17.30
2019-02-24T14:07:48.908Z,17.30
2019-02-24T14:10:18.210Z,17.50
2019-02-24T14:12:47.521Z,17.70
2019-02-24T14:15:17.774Z,17.50
2019-02-24T14:17:47.089Z,17.60
2019-02-24T14:20:20.061Z,17.60
2019-02-24T14:22:49.415Z,17.90
2019-02-24T14:25:18.719Z,18.00
2019-02-24T14:27:48.311Z,18.00
2019-02-24T14:30:19.342Z,18.00
2019-02-24T14:32:48.972Z,18.00
2019-02-24T14:35:26.692Z,18.20
2019-02-24T14:37:55.999Z,18.40
2019-02-24T14:40:25.309Z,18.40
2019-02-24T14:42:54.954Z,18.40
2019-02-24T14:45:25.202Z,18.50
2019-02-24T14:47:54.887Z,18.40
2019-02-24T14:50:24.512Z,18.50
2019-02-24T14:52:53.819Z,18.50
2019-02-24T14:55:23.399Z,18.60
2019-02-24T14:57:52.749Z,18.60
2019-02-24T15:00:23.864Z,18.40
2019-02-24T15:02:53.161Z,18.30
2019-02-24T15:05:22.750Z,17.80
2019-02-24T15:07:52.053Z,17.40
2019-02-24T15:10:24.247Z,17.00
2019-02-24T15:12:53.607Z,16.60
2019-02-24T15:15:32.857Z,16.30
2019-02-24T15:18:00.749Z,16.20
2019-02-24T15:20:30.180Z,16.00
2019-02-24T15:22:59.735Z,16.00
2019-02-24T15:25:29.096Z,15.90
2019-02-24T15:27:58.402Z,15.80
2019-02-24T15:30:36.495Z,15.90
2019-02-24T15:33:06.014Z,16.10
2019-02-24T15:35:35.654Z,16.70
2019-02-24T15:38:05.648Z,17.20
2019-02-24T15:40:34.945Z,17.20
2019-02-24T15:43:04.399Z,17.60
2019-02-24T15:45:33.764Z,17.90
2019-02-24T15:48:03.084Z,18.30
2019-02-24T15:50:32.394Z,18.50
2019-02-24T15:53:01.755Z,18.60
2019-02-24T15:55:31.062Z,18.50
2019-02-24T15:58:00.695Z,18.70
2019-02-24T16:00:30.039Z,18.80
2019-02-24T16:03:01.786Z,19.00
2019-02-24T16:05:30.956Z,19.00
2019-02-24T16:08:00.586Z,19.10
2019-02-24T16:10:29.896Z,18.40
2019-02-24T16:12:59.462Z,18.10
2019-02-24T16:15:31.760Z,18.30
2019-02-24T16:18:01.126Z,18.10
2019-02-24T16:20:36.347Z,17.70
2019-02-24T16:23:05.789Z,17.40
2019-02-24T16:25:35.163Z,17.00
2019-02-24T16:28:04.406Z,16.60
2019-02-24T16:30:33.765Z,16.40
2019-02-24T16:33:10.200Z,16.00
2019-02-24T16:35:34.097Z,15.70
2019-02-24T16:38:03.455Z,15.70
2019-02-24T16:40:33.032Z,15.50
2019-02-24T16:43:05.143Z,15.30
2019-02-24T16:45:34.499Z,15.20
2019-02-24T16:48:04.198Z,15.00
2019-02-24T16:50:33.515Z,14.90
2019-02-24T16:53:03.352Z,14.70
2019-02-24T16:55:33.632Z,14.60
2019-02-24T16:58:03.237Z,14.50
2019-02-24T17:00:33.086Z,14.40
2019-02-24T17:03:02.438Z,14.20
2019-02-24T17:05:31.745Z,14.00
2019-02-24T17:08:01.050Z,13.80
2019-02-24T17:10:31.396Z,13.70
2019-02-24T17:13:01.828Z,13.60
2019-02-24T17:15:31.919Z,13.40
2019-02-24T17:18:01.538Z,13.20
2019-02-24T17:20:31.613Z,12.90
2019-02-24T17:23:01.261Z,12.90
2019-02-24T17:25:30.613Z,12.80
2019-02-24T17:27:59.939Z,12.80
2019-02-24T17:30:29.247Z,12.70
2019-02-24T17:32:58.878Z,12.80
2019-02-24T17:35:28.235Z,12.60
2019-02-24T17:37:57.554Z,12.40
2019-02-24T17:40:26.871Z,12.30
2019-02-24T17:42:56.241Z,12.20
2019-02-24T17:45:25.560Z,12.00
2019-02-24T17:47:54.872Z,11.90
2019-02-24T17:50:24.232Z,11.80
2019-02-24T17:52:53.774Z,11.70
2019-02-24T17:55:23.382Z,11.50
2019-02-24T17:57:53.004Z,11.30
2019-02-24T18:00:29.320Z,11.30
2019-02-24T18:02:59.111Z,11.30
2019-02-24T18:05:28.420Z,11.30
2019-02-24T18:07:57.738Z,11.40
2019-02-24T18:10:27.372Z,11.10
2019-02-24T18:12:56.982Z,10.90
2019-02-24T18:15:26.341Z,10.90
2019-02-24T18:17:55.758Z,10.70
2019-02-24T18:20:25.411Z,10.50
2019-02-24T18:22:55.026Z,10.40
2019-02-24T18:25:24.384Z,10.40
2019-02-24T18:27:53.729Z,10.20
2019-02-24T18:30:30.885Z,10.20
2019-02-24T18:33:00.493Z,10.20
2019-02-24T18:35:29.808Z,10.30
2019-02-24T18:37:59.188Z,10.20
2019-02-24T18:40:28.718Z,10.10
2019-02-24T18:43:00.456Z,10.00
2019-02-24T18:45:29.162Z,10.00
2019-02-24T18:47:58.466Z,10.10
2019-02-24T18:50:28.071Z,10.00
2019-02-24T18:52:57.427Z,10.00
2019-02-24T18:55:26.736Z,10.20
2019-02-24T18:57:56.044Z,10.20
2019-02-24T19:00:25.469Z,10.10
2019-02-24T19:02:55.242Z,10.10
2019-02-24T19:05:25.091Z,10.00
2019-02-24T19:07:54.446Z,9.80
2019-02-24T19:10:24.714Z,9.70
2019-02-24T19:12:54.318Z,9.60
2019-02-24T19:15:25.083Z,9.40
2019-02-24T19:17:54.403Z,9.60
2019-02-24T19:20:24.953Z,9.50
2019-02-24T19:22:54.546Z,9.50
2019-02-24T19:25:23.923Z,9.50
2019-02-24T19:27:53.524Z,9.60
2019-02-24T19:30:23.526Z,9.50
2019-02-24T19:32:52.880Z,9.30
2019-02-24T19:35:22.716Z,9.20
2019-02-24T19:37:52.076Z,9.30
2019-02-24T19:40:24.310Z,9.30
2019-02-24T19:42:53.886Z,9.30
2019-02-24T19:45:25.929Z,9.20
2019-02-24T19:47:55.485Z,9.10
2019-02-24T19:50:24.786Z,9.10
2019-02-24T19:52:54.138Z,9.10
2019-02-24T19:55:23.450Z,9.00
2019-02-24T19:57:52.900Z,8.90
2019-02-24T20:00:25.796Z,8.80
2019-02-24T20:02:55.101Z,8.70
2019-02-24T20:05:24.672Z,8.70
2019-02-24T20:07:54.021Z,8.60
2019-02-24T20:10:31.165Z,8.60
2019-02-24T20:13:00.765Z,8.60
2019-02-24T20:15:30.090Z,8.50
2019-02-24T20:17:59.707Z,8.50
2019-02-24T20:20:29.033Z,8.50
2019-02-24T20:22:58.588Z,8.60
2019-02-24T20:25:27.900Z,8.60
2019-02-24T20:27:57.245Z,8.60
2019-02-24T20:30:35.722Z,8.50
2019-02-24T20:33:05.472Z,8.50
2019-02-24T20:35:35.129Z,8.50
2019-02-24T20:38:04.731Z,8.40
2019-02-24T20:40:34.089Z,8.30
2019-02-24T20:43:03.389Z,8.40
2019-02-24T20:45:33.031Z,8.30
2019-02-24T20:48:02.342Z,8.40
2019-02-24T20:50:34.774Z,8.30
2019-02-24T20:53:04.389Z,8.30
2019-02-24T20:55:34.033Z,8.40
2019-02-24T20:58:03.351Z,8.40
2019-02-24T21:00:42.395Z,8.60
2019-02-24T21:03:11.708Z,8.60
2019-02-24T21:05:41.267Z,8.60
2019-02-24T21:08:10.621Z,8.40
2019-02-24T21:10:40.274Z,8.20
2019-02-24T21:13:09.586Z,8.10
2019-02-24T21:15:39.294Z,8.10
2019-02-24T21:18:08.605Z,8.20
2019-02-24T21:20:38.287Z,8.10
2019-02-24T21:23:07.901Z,8.10
2019-02-24T21:25:37.511Z,8.00
2019-02-24T21:28:07.122Z,8.00
2019-02-24T21:30:36.725Z,7.90
2019-02-24T21:33:06.253Z,8.00
2019-02-24T21:35:35.566Z,7.90
2019-02-24T21:38:05.234Z,7.90
2019-02-24T21:40:34.847Z,7.90
2019-02-24T21:43:04.236Z,7.90
2019-02-24T21:45:33.845Z,7.80
2019-02-24T21:48:03.152Z,7.80
2019-02-24T21:50:32.730Z,7.80
2019-02-24T21:53:02.098Z,7.80
2019-02-24T21:55:31.682Z,7.80
2019-02-24T21:58:01.272Z,7.80
2019-02-24T22:00:30.870Z,7.90
2019-02-24T22:03:00.485Z,8.00
2019-02-24T22:05:30.085Z,8.00
2019-02-24T22:07:59.495Z,8.00
2019-02-24T22:10:48.374Z,8.10
2019-02-24T22:13:18.068Z,8.30
2019-02-24T22:15:47.389Z,8.40
2019-02-24T22:18:16.746Z,8.50
2019-02-24T22:20:46.104Z,8.30
2019-02-24T22:23:15.670Z,8.10
2019-02-24T22:25:44.981Z,8.10
2019-02-24T22:28:14.349Z,8.00
2019-02-24T22:30:43.659Z,7.70
2019-02-24T22:33:13.304Z,7.70
2019-02-24T22:35:42.663Z,7.60
2019-02-24T22:38:12.297Z,7.30
2019-02-24T22:40:54.036Z,7.10
2019-02-24T22:43:16.010Z,7.00
2019-02-24T22:45:45.331Z,6.90
2019-02-24T22:48:14.695Z,7.00
2019-02-24T22:50:44.004Z,6.90
2019-02-24T22:53:13.321Z,6.70
2019-02-24T22:55:42.650Z,6.70
2019-02-24T22:58:12.071Z,6.70
2019-02-24T23:00:55.557Z,6.80
2019-02-24T23:03:29.099Z,6.90
2019-02-24T23:05:58.465Z,6.80
2019-02-24T23:08:27.826Z,6.80
2019-02-24T23:10:57.183Z,7.00
2019-02-24T23:13:26.492Z,7.00
2019-02-24T23:15:55.799Z,6.80
2019-02-24T23:18:25.284Z,6.60
2019-02-24T23:20:54.594Z,6.60
2019-02-24T23:23:23.902Z,6.60
2019-02-24T23:25:53.333Z,6.50
2019-02-24T23:28:22.639Z,6.40
2019-02-24T23:30:51.940Z,6.40
2019-02-24T23:33:21.574Z,6.50
2019-02-24T23:35:51.175Z,6.50
2019-02-24T23:38:20.779Z,6.40
2019-02-24T23:40:50.388Z,6.30
2019-02-24T23:43:22.287Z,6.30
2019-02-24T23:45:51.871Z,6.40
2019-02-24T23:48:21.579Z,6.20
2019-02-24T23:50:50.891Z,6.10
2019-02-24T23:53:20.205Z,6.00
2019-02-24T23:55:49.562Z,6.00
2019-02-24T23:58:19.178Z,6.10
